createdAt,value
2018-10-17T00:02:21.203Z,8.95
2018-10-17T00:04:50.357Z,10.00
2018-10-17T00:07:19.354Z,10.88
2018-10-17T00:09:48.322Z,12.73
2018-10-17T00:12:17.261Z,13.32
2018-10-17T00:14:46.218Z,13.18
2018-10-17T00:17:15.178Z,13.83
2018-10-17T00:19:44.111Z,13.00
2018-10-17T00:22:13.038Z,12.82
2018-10-17T00:24:41.986Z,11.80
2018-10-17T00:27:10.905Z,12.28
2018-10-17T00:29:39.854Z,11.35
2018-10-17T00:32:08.776Z,11.40
2018-10-17T00:34:37.730Z,10.60
2018-10-17T00:37:06.652Z,10.13
2018-10-17T00:39:35.611Z,10.80
2018-10-17T00:42:04.557Z,10.40
2018-10-17T00:44:33.517Z,10.58
2018-10-17T00:47:02.495Z,9.63
2018-10-17T00:49:31.422Z,9.55
2018-10-17T00:52:00.354Z,10.15
2018-10-17T00:54:29.318Z,10.20
2018-10-17T00:56:58.239Z,9.93
2018-10-17T00:59:27.293Z,9.43
2018-10-17T01:01:56.227Z,9.40
2018-10-17T01:04:25.169Z,9.50
2018-10-17T01:06:54.128Z,8.25
2018-10-17T01:09:23.059Z,4.90
2018-10-17T01:11:52.011Z,4.47
2018-10-17T01:14:20.969Z,5.00
2018-10-17T01:16:49.954Z,4.40
2018-10-17T01:19:18.902Z,4.00
2018-10-17T01:21:47.869Z,5.72
2018-10-17T01:24:16.817Z,4.90
2018-10-17T01:26:45.781Z,5.45
2018-10-17T01:29:14.802Z,5.12
2018-10-17T01:31:43.705Z,4.90
2018-10-17T01:34:12.641Z,5.72
2018-10-17T01:36:41.617Z,6.22
2018-10-17T01:39:11.502Z,5.67
2018-10-17T01:41:40.491Z,5.70
2018-10-17T01:44:09.609Z,5.70
2018-10-17T01:46:38.569Z,5.08
2018-10-17T01:49:07.563Z,5.50
2018-10-17T01:51:36.510Z,5.55
2018-10-17T01:54:05.481Z,5.10
2018-10-17T01:56:34.442Z,5.53
2018-10-17T01:59:03.498Z,5.45
2018-10-17T02:01:32.397Z,6.00
2018-10-17T02:04:01.343Z,6.12
2018-10-17T02:06:30.306Z,5.60
2018-10-17T02:08:59.238Z,6.40
2018-10-17T02:11:28.199Z,5.90
2018-10-17T02:13:57.158Z,6.28
2018-10-17T02:16:26.114Z,6.05
2018-10-17T02:18:55.073Z,6.90
2018-10-17T02:21:24.002Z,7.10
2018-10-17T02:23:52.941Z,6.12
2018-10-17T02:26:21.885Z,7.00
2018-10-17T02:28:50.811Z,7.00
2018-10-17T02:31:19.869Z,9.00
2018-10-17T02:33:48.714Z,11.23
2018-10-17T02:36:17.630Z,9.40
2018-10-17T02:38:46.590Z,11.45
2018-10-17T02:41:15.537Z,11.43
2018-10-17T02:43:44.509Z,10.95
2018-10-17T02:46:13.454Z,11.30
2018-10-17T02:48:42.395Z,11.15
2018-10-17T02:51:11.325Z,10.65
2018-10-17T02:53:40.274Z,9.73
2018-10-17T02:56:09.201Z,9.95
2018-10-17T02:58:38.162Z,7.75
2018-10-17T03:01:07.165Z,7.45
2018-10-17T03:03:36.132Z,8.03
2018-10-17T03:06:05.087Z,9.15
2018-10-17T03:08:34.044Z,8.00
2018-10-17T03:11:02.994Z,9.30
2018-10-17T03:13:31.976Z,9.78
2018-10-17T03:16:00.882Z,9.95
2018-10-17T03:18:29.847Z,8.98
2018-10-17T03:20:58.778Z,6.50
2018-10-17T03:23:27.746Z,6.70
2018-10-17T03:25:56.688Z,7.37
2018-10-17T03:28:25.883Z,7.20
2018-10-17T03:30:54.816Z,7.17
2018-10-17T03:33:23.771Z,7.25
2018-10-17T03:35:52.720Z,6.87
2018-10-17T03:38:21.670Z,7.00
2018-10-17T03:40:50.595Z,6.85
2018-10-17T03:43:19.523Z,6.58
2018-10-17T03:45:48.448Z,6.50
2018-10-17T03:48:17.375Z,7.60
2018-10-17T03:50:46.290Z,7.37
2018-10-17T03:53:15.335Z,7.87
2018-10-17T03:55:44.192Z,8.03
2018-10-17T03:58:13.139Z,9.00
2018-10-17T04:00:42.079Z,8.50
2018-10-17T04:03:11.107Z,8.57
2018-10-17T04:05:39.995Z,9.60
2018-10-17T04:08:08.927Z,10.30
2018-10-17T04:10:37.870Z,9.37
2018-10-17T04:13:06.828Z,9.03
2018-10-17T04:15:35.797Z,9.48
2018-10-17T04:18:04.719Z,9.20
2018-10-17T04:20:33.702Z,9.20
2018-10-17T04:23:02.699Z,10.60
2018-10-17T04:25:31.606Z,10.80
2018-10-17T04:28:00.538Z,13.90
2018-10-17T04:30:29.482Z,12.70
2018-10-17T04:32:58.446Z,12.70
2018-10-17T04:35:27.398Z,13.80
2018-10-17T04:37:56.354Z,13.60
2018-10-17T04:40:25.299Z,12.70
2018-10-17T04:42:54.294Z,12.50
2018-10-17T04:45:23.198Z,11.83
2018-10-17T04:47:52.118Z,12.70
2018-10-17T04:50:21.074Z,12.05
2018-10-17T04:52:50.026Z,12.55
2018-10-17T04:55:19.127Z,10.80
2018-10-17T04:57:48.138Z,12.78
2018-10-17T05:00:17.162Z,12.47
2018-10-17T05:02:46.090Z,12.33
2018-10-17T05:05:15.131Z,13.00
2018-10-17T05:07:44.037Z,13.40
2018-10-17T05:10:12.982Z,14.90
2018-10-17T05:12:41.922Z,14.63
2018-10-17T05:15:10.866Z,13.60
2018-10-17T05:17:39.842Z,13.70
2018-10-17T05:20:08.818Z,12.00
2018-10-17T05:22:37.800Z,12.50
2018-10-17T05:25:07.529Z,11.93
2018-10-17T05:27:36.803Z,11.50
2018-10-17T05:30:06.947Z,44.67
2018-10-17T05:32:35.979Z,17.15
2018-10-17T05:35:05.565Z,14.83
2018-10-17T05:37:34.557Z,14.28
2018-10-17T05:40:03.550Z,13.58
2018-10-17T05:42:32.510Z,13.37
2018-10-17T05:45:01.459Z,13.58
2018-10-17T05:47:30.433Z,13.88
2018-10-17T05:49:59.421Z,14.00
2018-10-17T05:52:28.407Z,14.68
2018-10-17T05:54:57.368Z,13.93
2018-10-17T05:57:26.330Z,15.30
2018-10-17T05:59:55.286Z,17.48
2018-10-17T06:02:27.710Z,15.43
2018-10-17T06:04:56.641Z,14.33
2018-10-17T06:07:25.650Z,13.63
2018-10-17T06:09:54.612Z,13.70
2018-10-17T06:12:23.592Z,13.83
2018-10-17T06:14:52.543Z,13.00
2018-10-17T06:17:21.725Z,13.20
2018-10-17T06:19:50.766Z,12.57
2018-10-17T06:22:19.773Z,13.80
2018-10-17T06:24:48.765Z,13.70
2018-10-17T06:27:17.746Z,14.70
2018-10-17T06:29:46.718Z,14.23
2018-10-17T06:32:15.725Z,14.20
2018-10-17T06:34:44.702Z,13.62
2018-10-17T06:37:13.787Z,14.00
2018-10-17T06:39:42.705Z,13.90
2018-10-17T06:42:11.701Z,14.10
2018-10-17T06:44:40.653Z,15.07
2018-10-17T06:47:09.769Z,12.40
2018-10-17T06:49:38.639Z,12.70
2018-10-17T06:52:07.590Z,13.30
2018-10-17T06:54:36.851Z,14.80
2018-10-17T06:57:06.090Z,14.40
2018-10-17T06:59:35.070Z,14.70
2018-10-17T07:02:04.248Z,13.97
2018-10-17T07:04:33.257Z,14.40
2018-10-17T07:07:02.306Z,13.90
2018-10-17T07:09:31.191Z,14.03
2018-10-17T07:12:00.142Z,14.73
2018-10-17T07:14:29.934Z,14.60
2018-10-17T07:16:59.890Z,15.90
2018-10-17T07:19:29.026Z,15.63
2018-10-17T07:21:58.303Z,16.60
2018-10-17T07:24:27.290Z,17.82
2018-10-17T07:26:56.319Z,18.73
2018-10-17T07:29:25.421Z,19.03
2018-10-17T07:31:54.258Z,19.00
2018-10-17T07:34:23.243Z,18.05
2018-10-17T07:36:52.235Z,17.97
2018-10-17T07:39:21.356Z,19.82
2018-10-17T07:41:50.195Z,18.67
2018-10-17T07:44:19.190Z,18.50
2018-10-17T07:46:48.219Z,18.95
2018-10-17T07:49:17.239Z,19.25
2018-10-17T07:51:46.188Z,18.65
2018-10-17T07:54:15.335Z,18.90
2018-10-17T07:56:44.130Z,19.67
2018-10-17T07:59:13.111Z,19.00
2018-10-17T08:01:42.067Z,18.30
2018-10-17T08:04:11.035Z,17.97
2018-10-17T08:06:40.590Z,19.70
2018-10-17T08:09:10.610Z,19.53
2018-10-17T08:11:39.876Z,20.92
2018-10-17T08:14:09.056Z,20.03
2018-10-17T08:16:37.989Z,19.67
2018-10-17T08:19:06.955Z,20.30
2018-10-17T08:21:35.919Z,19.90
2018-10-17T08:24:04.907Z,22.60
2018-10-17T08:26:33.831Z,24.03
2018-10-17T08:29:02.770Z,24.98
2018-10-17T08:31:31.710Z,22.90
2018-10-17T08:34:00.710Z,23.53
2018-10-17T08:36:30.072Z,24.77
2018-10-17T08:38:58.627Z,24.70
2018-10-17T08:41:27.599Z,26.00
2018-10-17T08:43:56.583Z,27.43
2018-10-17T08:46:25.532Z,26.37
2018-10-17T08:48:54.466Z,28.10
2018-10-17T08:51:23.410Z,27.05
2018-10-17T08:53:52.339Z,27.30
2018-10-17T08:56:21.320Z,26.35
2018-10-17T08:58:50.251Z,26.23
2018-10-17T09:01:19.207Z,25.48
2018-10-17T09:03:48.139Z,25.87
2018-10-17T09:06:17.156Z,28.70
2018-10-17T09:08:46.058Z,27.80
2018-10-17T09:11:15.022Z,26.33
2018-10-17T09:13:43.966Z,25.40
2018-10-17T09:16:13.050Z,25.20
2018-10-17T09:18:41.903Z,27.98
2018-10-17T09:21:11.089Z,28.83
2018-10-17T09:23:39.794Z,27.55
2018-10-17T09:26:08.751Z,26.50
2018-10-17T09:28:37.670Z,24.80
2018-10-17T09:31:06.732Z,24.87
2018-10-17T09:33:35.646Z,24.50
2018-10-17T09:36:04.881Z,23.02
2018-10-17T09:38:33.791Z,24.17
2018-10-17T09:41:03.251Z,24.05
2018-10-17T09:43:32.199Z,23.60
2018-10-17T09:46:01.161Z,24.20
2018-10-17T09:48:30.098Z,24.60
2018-10-17T09:50:59.034Z,23.75
2018-10-17T09:53:28.134Z,25.23
2018-10-17T09:55:56.972Z,24.33
2018-10-17T09:58:25.922Z,23.00
2018-10-17T10:01:00.111Z,24.07
2018-10-17T10:03:29.046Z,21.70
2018-10-17T10:05:58.001Z,22.30
2018-10-17T10:08:27.154Z,20.77
2018-10-17T10:10:56.117Z,20.30
2018-10-17T10:13:25.056Z,20.80
2018-10-17T10:15:54.075Z,20.12
2018-10-17T10:18:23.023Z,20.60
2018-10-17T10:20:51.957Z,23.00
2018-10-17T10:23:20.912Z,21.57
2018-10-17T10:25:49.845Z,21.00
2018-10-17T10:28:18.928Z,23.15
2018-10-17T10:30:47.769Z,20.00
2018-10-17T10:33:16.709Z,20.30
2018-10-17T10:35:45.698Z,16.50
2018-10-17T10:38:14.655Z,15.75
2018-10-17T10:40:43.628Z,15.30
2018-10-17T10:43:12.567Z,15.33
2018-10-17T10:45:41.594Z,15.67
2018-10-17T10:48:10.648Z,15.13
2018-10-17T10:50:39.519Z,14.23
2018-10-17T10:53:08.471Z,14.80
2018-10-17T10:55:37.431Z,14.33
2018-10-17T10:58:06.499Z,14.20
2018-10-17T11:00:35.375Z,14.00
2018-10-17T11:03:04.353Z,15.38
2018-10-17T11:05:33.486Z,16.50
2018-10-17T11:08:02.285Z,17.90
2018-10-17T11:10:31.306Z,14.55
2018-10-17T11:13:00.470Z,16.00
2018-10-17T11:15:29.437Z,16.62
2018-10-17T11:17:58.450Z,15.70
2018-10-17T11:20:27.411Z,15.18
2018-10-17T11:22:56.372Z,13.60
2018-10-17T11:25:25.358Z,12.43
2018-10-17T11:27:54.311Z,9.70
2018-10-17T11:30:23.266Z,9.38
2018-10-17T11:32:52.316Z,9.60
2018-10-17T11:35:21.270Z,12.27
2018-10-17T11:37:50.251Z,9.00
2018-10-17T11:40:19.299Z,9.23
2018-10-17T11:42:48.273Z,9.53
2018-10-17T11:45:17.331Z,9.30
2018-10-17T11:47:46.333Z,8.30
2018-10-17T11:50:15.251Z,7.72
2018-10-17T11:52:44.205Z,8.30
2018-10-17T11:55:13.191Z,8.00
2018-10-17T11:57:42.143Z,9.93
2018-10-17T12:00:12.554Z,9.03
2018-10-17T12:02:41.524Z,9.88
2018-10-17T12:05:13.705Z,8.53
2018-10-17T12:07:42.571Z,8.90
2018-10-17T12:10:11.537Z,8.20
2018-10-17T12:12:40.487Z,8.30
2018-10-17T12:15:13.599Z,8.07
2018-10-17T12:17:42.613Z,8.60
2018-10-17T12:20:13.082Z,8.30
2018-10-17T12:22:42.866Z,7.97
2018-10-17T12:25:12.305Z,8.10
2018-10-17T12:27:41.302Z,7.83
2018-10-17T12:30:12.723Z,7.67
2018-10-17T12:32:41.826Z,8.60
2018-10-17T12:35:11.091Z,8.00
2018-10-17T12:37:40.010Z,7.83
2018-10-17T12:40:10.642Z,7.83
2018-10-17T12:42:39.555Z,7.20
2018-10-17T12:45:08.583Z,7.30
2018-10-17T12:47:37.559Z,6.90
2018-10-17T12:50:07.607Z,7.50
2018-10-17T12:52:36.696Z,7.50
2018-10-17T12:55:06.645Z,7.00
2018-10-17T12:57:35.612Z,7.20
2018-10-17T13:00:04.732Z,7.20
2018-10-17T13:02:33.699Z,7.53
2018-10-17T13:05:02.729Z,6.90
2018-10-17T13:07:31.708Z,7.22
2018-10-17T13:10:00.711Z,6.80
2018-10-17T13:12:29.702Z,7.10
2018-10-17T13:14:58.723Z,6.87
2018-10-17T13:17:27.683Z,6.10
2018-10-17T13:19:56.623Z,7.00
2018-10-17T13:22:25.691Z,7.20
2018-10-17T13:24:54.672Z,6.80
2018-10-17T13:27:23.634Z,6.80
2018-10-17T13:29:52.776Z,6.40
2018-10-17T13:32:21.738Z,6.72
2018-10-17T13:34:52.509Z,6.95
2018-10-17T13:37:21.487Z,7.47
2018-10-17T13:39:50.588Z,6.92
2018-10-17T13:42:19.615Z,8.00
2018-10-17T13:44:49.686Z,7.03
2018-10-17T13:47:18.702Z,7.10
2018-10-17T13:49:47.770Z,7.40
2018-10-17T13:52:16.924Z,7.10
2018-10-17T13:54:45.916Z,7.08
2018-10-17T13:57:14.886Z,7.60
2018-10-17T13:59:44.140Z,7.20
2018-10-17T14:02:13.583Z,7.00
2018-10-17T14:04:42.627Z,6.35
2018-10-17T14:07:13.273Z,7.00
2018-10-17T14:09:42.234Z,6.70
2018-10-17T14:12:11.293Z,6.80
2018-10-17T14:14:40.186Z,6.30
2018-10-17T14:17:09.243Z,7.00
2018-10-17T14:19:38.282Z,6.70
2018-10-17T14:22:08.017Z,6.50
2018-10-17T14:24:37.016Z,6.62
2018-10-17T14:27:06.554Z,6.63
2018-10-17T14:29:35.580Z,6.90
2018-10-17T14:32:04.839Z,6.40
2018-10-17T14:34:34.167Z,7.07
2018-10-17T14:37:03.167Z,6.85
2018-10-17T14:39:32.246Z,6.90
2018-10-17T14:42:01.221Z,7.37
2018-10-17T14:44:30.235Z,7.47
2018-10-17T14:46:59.238Z,7.72
2018-10-17T14:49:28.196Z,7.75
2018-10-17T14:51:58.211Z,7.47
2018-10-17T14:54:27.259Z,7.93
2018-10-17T14:56:56.227Z,8.60
2018-10-17T14:59:25.401Z,7.27
2018-10-17T15:01:54.711Z,7.87
2018-10-17T15:04:23.954Z,8.20
2018-10-17T15:06:52.910Z,8.00
2018-10-17T15:09:21.906Z,7.95
2018-10-17T15:11:51.884Z,8.03
2018-10-17T15:14:21.459Z,7.73
2018-10-17T15:16:50.417Z,7.50
2018-10-17T15:19:19.422Z,8.03
2018-10-17T15:21:48.359Z,8.45
2018-10-17T15:24:17.482Z,8.65
2018-10-17T15:26:46.402Z,8.37
2018-10-17T15:29:15.362Z,9.10
2018-10-17T15:31:44.319Z,9.20
2018-10-17T15:34:14.259Z,8.33
2018-10-17T15:36:43.209Z,8.83
2018-10-17T15:39:12.594Z,14.78
2018-10-17T15:41:41.567Z,11.90
2018-10-17T15:44:10.563Z,10.20
2018-10-17T15:46:39.507Z,10.60
2018-10-17T15:49:08.503Z,10.30
2018-10-17T15:51:37.467Z,10.53
2018-10-17T15:54:06.518Z,10.20
2018-10-17T15:56:35.451Z,9.93
2018-10-17T15:59:05.544Z,10.20
2018-10-17T16:01:34.492Z,10.68
2018-10-17T16:04:03.477Z,9.80
2018-10-17T16:06:33.434Z,10.10
2018-10-17T16:09:05.445Z,9.67
2018-10-17T16:11:39.881Z,11.10
2018-10-17T16:14:10.245Z,11.10
2018-10-17T16:16:43.966Z,11.33
2018-10-17T16:19:14.899Z,11.40
2018-10-17T16:21:46.389Z,12.65
2018-10-17T16:24:16.879Z,11.55
2018-10-17T16:26:49.423Z,13.50
2018-10-17T16:29:20.544Z,12.50
2018-10-17T16:31:50.491Z,13.77
2018-10-17T16:34:21.086Z,14.73
2018-10-17T16:36:52.608Z,14.20
2018-10-17T16:39:22.595Z,13.53
2018-10-17T16:41:52.409Z,13.70
2018-10-17T16:44:22.508Z,14.23
2018-10-17T16:46:53.864Z,14.65
2018-10-17T16:49:25.012Z,14.98
2018-10-17T16:51:55.575Z,15.08
2018-10-17T16:54:25.892Z,14.10
2018-10-17T16:56:56.793Z,14.27
2018-10-17T16:59:28.499Z,13.27
2018-10-17T17:01:58.545Z,14.17
2018-10-17T17:04:28.535Z,14.60
2018-10-17T17:06:58.754Z,14.60
2018-10-17T17:09:30.304Z,14.93
2018-10-17T17:12:02.085Z,15.80
2018-10-17T17:14:33.182Z,15.20
2018-10-17T17:17:05.812Z,16.33
2018-10-17T17:19:36.417Z,16.80
2018-10-17T17:22:08.521Z,16.60
2018-10-17T17:24:39.734Z,16.45
2018-10-17T17:27:11.138Z,15.90
2018-10-17T17:29:41.474Z,17.50
2018-10-17T17:32:11.437Z,17.37
2018-10-17T17:34:45.852Z,17.30
2018-10-17T17:37:16.487Z,16.67
2018-10-17T17:39:46.488Z,16.60
2018-10-17T17:42:19.566Z,17.07
2018-10-17T17:44:52.644Z,17.55
2018-10-17T17:47:23.114Z,17.95
2018-10-17T17:49:53.090Z,17.33
2018-10-17T17:52:23.621Z,17.92
2018-10-17T17:54:54.455Z,18.82
2018-10-17T17:57:25.109Z,17.80
2018-10-17T17:59:55.039Z,18.07
2018-10-17T18:02:26.867Z,19.00
2018-10-17T18:04:57.417Z,18.00
2018-10-17T18:07:28.432Z,18.00
2018-10-17T18:09:58.921Z,19.20
2018-10-17T18:12:31.048Z,19.30
2018-10-17T18:15:01.935Z,18.87
2018-10-17T18:17:32.646Z,18.60
2018-10-17T18:20:03.210Z,16.42
2018-10-17T18:22:33.511Z,16.93
2018-10-17T18:25:03.514Z,17.00
2018-10-17T18:27:34.352Z,17.57
2018-10-17T18:30:04.470Z,17.23
2018-10-17T18:32:34.443Z,16.77
2018-10-17T18:35:04.365Z,16.20
2018-10-17T18:37:37.325Z,15.88
2018-10-17T18:40:09.013Z,16.34
2018-10-17T18:42:40.965Z,16.62
2018-10-17T18:45:12.432Z,15.13
2018-10-17T18:47:42.496Z,15.50
2018-10-17T18:50:12.435Z,15.13
2018-10-17T18:52:43.346Z,16.25
2018-10-17T18:55:13.165Z,16.07
2018-10-17T18:57:42.925Z,15.70
2018-10-17T19:00:13.449Z,16.80
2018-10-17T19:02:43.651Z,15.95
2018-10-17T19:05:13.554Z,16.50
2018-10-17T19:07:44.105Z,15.20
2018-10-17T19:10:14.017Z,15.10
2018-10-17T19:12:43.887Z,15.53
2018-10-17T19:15:14.373Z,16.93
2018-10-17T19:17:44.703Z,16.17
2018-10-17T19:20:14.870Z,17.17
2018-10-17T19:22:44.682Z,15.13
2018-10-17T19:25:14.508Z,16.95
2018-10-17T19:27:45.267Z,17.20
2018-10-17T19:30:15.235Z,17.80
2018-10-17T19:32:45.645Z,18.83
2018-10-17T19:35:15.832Z,17.52
2018-10-17T19:37:45.902Z,17.90
2018-10-17T19:40:16.229Z,18.20
2018-10-17T19:42:46.484Z,18.40
2018-10-17T19:45:17.476Z,18.20
2018-10-17T19:47:48.421Z,17.50
2018-10-17T19:50:19.000Z,18.23
2018-10-17T19:52:48.891Z,20.03
2018-10-17T19:55:19.727Z,21.42
2018-10-17T19:57:49.632Z,21.45
2018-10-17T20:00:20.094Z,20.95
2018-10-17T20:02:51.526Z,21.77
2018-10-17T20:05:24.856Z,22.10
2018-10-17T20:07:55.536Z,22.95
2018-10-17T20:10:25.484Z,23.60
2018-10-17T20:12:55.501Z,25.30
2018-10-17T20:15:25.909Z,25.63
2018-10-17T20:17:56.951Z,27.17
2018-10-17T20:20:29.261Z,28.00
2018-10-17T20:22:59.702Z,27.73
2018-10-17T20:25:30.607Z,27.93
2018-10-17T20:28:03.211Z,25.30
2018-10-17T20:30:34.501Z,25.67
2018-10-17T20:33:05.271Z,27.23
2018-10-17T20:35:36.722Z,26.80
2018-10-17T20:38:07.319Z,27.95
2018-10-17T20:40:38.003Z,26.30
2018-10-17T20:43:08.065Z,27.42
2018-10-17T20:45:38.802Z,27.83
2018-10-17T20:48:08.675Z,28.00
2018-10-17T20:50:38.746Z,30.60
2018-10-17T20:53:09.743Z,29.97
2018-10-17T20:55:43.099Z,29.03
2018-10-17T20:58:13.160Z,30.52
2018-10-17T21:00:43.155Z,29.90
2018-10-17T21:03:13.893Z,30.50
2018-10-17T21:05:44.975Z,30.97
2018-10-17T21:08:15.014Z,30.80
2018-10-17T21:10:47.534Z,32.83
2018-10-17T21:13:17.391Z,30.50
2018-10-17T21:15:47.830Z,31.33
2018-10-17T21:18:17.914Z,34.15
2018-10-17T21:20:48.068Z,34.08
2018-10-17T21:23:17.965Z,34.67
2018-10-17T21:25:48.273Z,34.40
2018-10-17T21:28:20.074Z,34.17
2018-10-17T21:30:50.463Z,34.93
2018-10-17T21:33:23.089Z,36.73
2018-10-17T21:35:54.224Z,37.05
2018-10-17T21:38:24.784Z,37.80
2018-10-17T21:40:54.597Z,38.40
2018-10-17T21:43:25.154Z,39.67
2018-10-17T21:45:57.144Z,39.50
2018-10-17T21:48:28.338Z,41.98
2018-10-17T21:50:58.956Z,44.15
2018-10-17T21:53:31.255Z,43.50
2018-10-17T21:56:01.739Z,45.92
2018-10-17T21:58:32.427Z,44.40
2018-10-17T22:01:04.457Z,44.90
2018-10-17T22:03:33.530Z,41.73
2018-10-17T22:06:02.536Z,42.93
2018-10-17T22:08:31.483Z,43.20
2018-10-17T22:11:00.442Z,43.30
2018-10-17T22:13:29.371Z,44.70
2018-10-17T22:15:58.328Z,44.05
2018-10-17T22:18:27.281Z,43.60
2018-10-17T22:20:56.201Z,41.63
2018-10-17T22:23:25.155Z,42.03
2018-10-17T22:25:54.155Z,41.13
2018-10-17T22:28:23.070Z,42.43
2018-10-17T22:30:52.003Z,40.20
2018-10-17T22:33:20.955Z,41.77
2018-10-17T22:35:49.877Z,41.10
2018-10-17T22:38:18.824Z,42.90
2018-10-17T22:40:47.751Z,41.28
2018-10-17T22:43:16.711Z,40.85
2018-10-17T22:45:45.627Z,36.70
2018-10-17T22:48:14.586Z,35.63
2018-10-17T22:50:43.531Z,30.52
2018-10-17T22:53:12.555Z,25.30
2018-10-17T22:55:41.474Z,18.75
2018-10-17T22:58:10.435Z,19.50
2018-10-17T23:00:39.370Z,20.53
2018-10-17T23:03:08.366Z,21.68
2018-10-17T23:05:37.314Z,22.80
2018-10-17T23:08:06.256Z,23.60
2018-10-17T23:10:35.203Z,28.07
2018-10-17T23:13:04.535Z,28.25
2018-10-17T23:15:33.471Z,29.60
2018-10-17T23:18:02.450Z,32.70
2018-10-17T23:20:31.386Z,33.50
2018-10-17T23:23:00.331Z,34.23
2018-10-17T23:25:29.254Z,35.03
2018-10-17T23:27:58.196Z,36.27
2018-10-17T23:30:27.151Z,37.38
2018-10-17T23:32:56.110Z,38.88
2018-10-17T23:35:25.022Z,40.45
2018-10-17T23:37:53.972Z,40.88
2018-10-17T23:40:22.910Z,38.70
2018-10-17T23:42:51.859Z,34.43
2018-10-17T23:45:20.782Z,31.37
2018-10-17T23:47:49.741Z,25.35
2018-10-17T23:50:18.782Z,25.43
2018-10-17T23:52:47.674Z,22.73
2018-10-17T23:55:16.610Z,23.45
2018-10-17T23:57:45.550Z,25.12
